sensor_id;sensor_type;location;lat;lon;timestamp;P1;durP1;ratioP1;P2;durP2;ratioP2
4821;SDS011;2425;47.794;13.068;2024-01-15T00:02:06;5.47;;;3.47;;
4821;SDS011;2425;47.794;13.068;2024-01-15T00:04:35;4.97;;;3.97;;
4821;SDS011;2425;47.794;13.068;2024-01-15T00:07:03;4.53;;;3.53;;
4821;SDS011;2425;47.794;13.068;2024-01-15T00:09:29;5.63;;;3.90;;
4821;SDS011;2425;47.794;13.068;2024-01-15T00:11:56;6.23;;;3.83;;
4821;SDS011;2425;47.794;13.068;2024-01-15T00:14:23;4.53;;;4.17;;
4821;SDS011;2425;47.794;13.068;2024-01-15T00:16:51;3.73;;;3.43;;
4821;SDS011;2425;47.794;13.068;2024-01-15T00:19:20;3.50;;;3.20;;
4821;SDS011;2425;47.794;13.068;2024-01-15T00:21:47;4.20;;;3.77;;
4821;SDS011;2425;47.794;13.068;2024-01-15T00:24:13;9.30;;;3.90;;
4821;SDS011;2425;47.794;13.068;2024-01-15T00:26:40;4.80;;;3.60;;
4821;SDS011;2425;47.794;13.068;2024-01-15T00:29:07;4.33;;;3.53;;
4821;SDS011;2425;47.794;13.068;2024-01-15T00:31:34;3.60;;;3.40;;
4821;SDS011;2425;47.794;13.068;2024-01-15T00:34:02;3.73;;;3.47;;
4821;SDS011;2425;47.794;13.068;2024-01-15T00:36:29;6.10;;;3.70;;
4821;SDS011;2425;47.794;13.068;2024-01-15T00:38:56;5.13;;;3.63;;
4821;SDS011;2425;47.794;13.068;2024-01-15T00:41:22;3.37;;;3.17;;
4821;SDS011;2425;47.794;13.068;2024-01-15T00:43:49;3.40;;;3.20;;
4821;SDS011;2425;47.794;13.068;2024-01-15T00:46:16;13.20;;;3.27;;
4821;SDS011;2425;47.794;13.068;2024-01-15T00:48:42;3.67;;;3.23;;
4821;SDS011;2425;47.794;13.068;2024-01-15T00:51:10;3.73;;;3.43;;
4821;SDS011;2425;47.794;13.068;2024-01-15T00:53:37;4.00;;;3.57;;
4821;SDS011;2425;47.794;13.068;2024-01-15T00:56:04;5.13;;;3.50;;
4821;SDS011;2425;47.794;13.068;2024-01-15T00:58:31;3.27;;;3.00;;
4821;SDS011;2425;47.794;13.068;2024-01-15T01:00:58;3.50;;;3.30;;
4821;SDS011;2425;47.794;13.068;2024-01-15T01:03:24;3.97;;;3.70;;
4821;SDS011;2425;47.794;13.068;2024-01-15T01:05:51;4.43;;;3.07;;
4821;SDS011;2425;47.794;13.068;2024-01-15T01:08:19;3.50;;;3.20;;
4821;SDS011;2425;47.794;13.068;2024-01-15T01:10:46;4.23;;;3.83;;
4821;SDS011;2425;47.794;13.068;2024-01-15T01:13:13;3.53;;;3.23;;
4821;SDS011;2425;47.794;13.068;2024-01-15T01:15:39;3.30;;;3.10;;
4821;SDS011;2425;47.794;13.068;2024-01-15T01:18:06;3.13;;;2.77;;
4821;SDS011;2425;47.794;13.068;2024-01-15T01:20:33;3.90;;;3.43;;
4821;SDS011;2425;47.794;13.068;2024-01-15T01:23:00;3.60;;;3.30;;
4821;SDS011;2425;47.794;13.068;2024-01-15T01:25:28;6.00;;;3.93;;
4821;SDS011;2425;47.794;13.068;2024-01-15T01:27:54;3.10;;;2.90;;
4821;SDS011;2425;47.794;13.068;2024-01-15T01:30:21;3.60;;;3.27;;
4821;SDS011;2425;47.794;13.068;2024-01-15T01:32:48;5.03;;;3.37;;
4821;SDS011;2425;47.794;13.068;2024-01-15T01:35:15;3.40;;;3.10;;
4821;SDS011;2425;47.794;13.068;2024-01-15T01:37:41;4.83;;;3.37;;
4821;SDS011;2425;47.794;13.068;2024-01-15T01:40:08;5.27;;;3.00;;
4821;SDS011;2425;47.794;13.068;2024-01-15T01:42:37;3.10;;;2.90;;
4821;SDS011;2425;47.794;13.068;2024-01-15T01:45:04;3.07;;;2.60;;
4821;SDS011;2425;47.794;13.068;2024-01-15T01:47:31;3.47;;;3.20;;
4821;SDS011;2425;47.794;13.068;2024-01-15T01:49:58;3.47;;;3.17;;
4821;SDS011;2425;47.794;13.068;2024-01-15T01:52:25;2.67;;;2.47;;
4821;SDS011;2425;47.794;13.068;2024-01-15T01:54:52;3.03;;;2.83;;
4821;SDS011;2425;47.794;13.068;2024-01-15T01:57:19;3.47;;;3.17;;
4821;SDS011;2425;47.794;13.068;2024-01-15T01:59:47;3.60;;;3.17;;
4821;SDS011;2425;47.794;13.068;2024-01-15T02:02:14;2.70;;;2.60;;
4821;SDS011;2425;47.794;13.068;2024-01-15T02:04:41;3.30;;;3.10;;
4821;SDS011;2425;47.794;13.068;2024-01-15T02:07:08;5.20;;;3.20;;
4821;SDS011;2425;47.794;13.068;2024-01-15T02:09:35;3.00;;;2.80;;
4821;SDS011;2425;47.794;13.068;2024-01-15T02:12:02;3.03;;;2.83;;
4821;SDS011;2425;47.794;13.068;2024-01-15T02:14:29;3.10;;;2.80;;
4821;SDS011;2425;47.794;13.068;2024-01-15T02:16:57;4.90;;;2.90;;
4821;SDS011;2425;47.794;13.068;2024-01-15T02:19:24;3.10;;;2.90;;
4821;SDS011;2425;47.794;13.068;2024-01-15T02:21:51;2.50;;;2.40;;
4821;SDS011;2425;47.794;13.068;2024-01-15T02:24:19;3.93;;;3.53;;
4821;SDS011;2425;47.794;13.068;2024-01-15T02:26:46;3.10;;;2.80;;
4821;SDS011;2425;47.794;13.068;2024-01-15T02:29:13;3.47;;;3.10;;
4821;SDS011;2425;47.794;13.068;2024-01-15T02:31:40;3.03;;;2.67;;
4821;SDS011;2425;47.794;13.068;2024-01-15T02:34:07;4.30;;;2.97;;
4821;SDS011;2425;47.794;13.068;2024-01-15T02:36:33;3.10;;;2.80;;
4821;SDS011;2425;47.794;13.068;2024-01-15T02:39:00;4.73;;;2.53;;
4821;SDS011;2425;47.794;13.068;2024-01-15T02:41:28;5.17;;;2.30;;
4821;SDS011;2425;47.794;13.068;2024-01-15T02:43:55;3.73;;;3.10;;
4821;SDS011;2425;47.794;13.068;2024-01-15T02:46:22;2.70;;;2.57;;
4821;SDS011;2425;47.794;13.068;2024-01-15T02:48:48;3.30;;;2.40;;
4821;SDS011;2425;47.794;13.068;2024-01-15T02:51:15;2.60;;;2.50;;
4821;SDS011;2425;47.794;13.068;2024-01-15T02:53:42;3.10;;;2.67;;
4821;SDS011;2425;47.794;13.068;2024-01-15T02:56:09;2.50;;;2.33;;
4821;SDS011;2425;47.794;13.068;2024-01-15T02:58:37;2.60;;;2.40;;
4821;SDS011;2425;47.794;13.068;2024-01-15T03:01:04;2.70;;;2.50;;
4821;SDS011;2425;47.794;13.068;2024-01-15T03:03:30;4.27;;;2.57;;
4821;SDS011;2425;47.794;13.068;2024-01-15T03:05:58;2.20;;;2.07;;
4821;SDS011;2425;47.794;13.068;2024-01-15T03:08:25;2.93;;;2.73;;
4821;SDS011;2425;47.794;13.068;2024-01-15T03:10:52;2.50;;;2.40;;
4821;SDS011;2425;47.794;13.068;2024-01-15T03:13:18;2.53;;;2.37;;
4821;SDS011;2425;47.794;13.068;2024-01-15T03:15:46;3.70;;;2.90;;
4821;SDS011;2425;47.794;13.068;2024-01-15T03:18:13;5.93;;;2.67;;
4821;SDS011;2425;47.794;13.068;2024-01-15T03:20:40;2.67;;;2.50;;
4821;SDS011;2425;47.794;13.068;2024-01-15T03:23:07;2.30;;;2.20;;
4821;SDS011;2425;47.794;13.068;2024-01-15T03:25:33;3.50;;;3.30;;
4821;SDS011;2425;47.794;13.068;2024-01-15T03:28:00;2.50;;;2.40;;
4821;SDS011;2425;47.794;13.068;2024-01-15T03:30:27;2.47;;;2.30;;
4821;SDS011;2425;47.794;13.068;2024-01-15T03:32:55;6.70;;;2.47;;
4821;SDS011;2425;47.794;13.068;2024-01-15T03:35:22;3.83;;;2.27;;
4821;SDS011;2425;47.794;13.068;2024-01-15T03:37:48;2.73;;;2.57;;
4821;SDS011;2425;47.794;13.068;2024-01-15T03:40:15;2.37;;;2.27;;
4821;SDS011;2425;47.794;13.068;2024-01-15T03:42:42;2.47;;;2.37;;
4821;SDS011;2425;47.794;13.068;2024-01-15T03:45:09;2.40;;;2.30;;
4821;SDS011;2425;47.794;13.068;2024-01-15T03:47:36;3.10;;;2.40;;
4821;SDS011;2425;47.794;13.068;2024-01-15T03:50:04;2.40;;;2.30;;
4821;SDS011;2425;47.794;13.068;2024-01-15T03:52:31;2.37;;;2.17;;
4821;SDS011;2425;47.794;13.068;2024-01-15T03:54:58;2.87;;;2.70;;
4821;SDS011;2425;47.794;13.068;2024-01-15T03:57:25;2.77;;;2.67;;
4821;SDS011;2425;47.794;13.068;2024-01-15T03:59:52;2.30;;;2.20;;
4821;SDS011;2425;47.794;13.068;2024-01-15T04:02:18;2.27;;;2.17;;
4821;SDS011;2425;47.794;13.068;2024-01-15T04:04:45;2.10;;;1.97;;
4821;SDS011;2425;47.794;13.068;2024-01-15T04:07:13;2.00;;;1.97;;
4821;SDS011;2425;47.794;13.068;2024-01-15T04:09:40;2.23;;;2.13;;
4821;SDS011;2425;47.794;13.068;2024-01-15T04:12:07;1.87;;;1.87;;
4821;SDS011;2425;47.794;13.068;2024-01-15T04:14:34;2.03;;;2.00;;
4821;SDS011;2425;47.794;13.068;2024-01-15T04:17:00;2.17;;;2.07;;
4821;SDS011;2425;47.794;13.068;2024-01-15T04:19:27;2.47;;;2.30;;
4821;SDS011;2425;47.794;13.068;2024-01-15T04:21:54;2.20;;;2.10;;
4821;SDS011;2425;47.794;13.068;2024-01-15T04:24:22;9.13;;;2.03;;
4821;SDS011;2425;47.794;13.068;2024-01-15T04:26:49;2.50;;;2.40;;
4821;SDS011;2425;47.794;13.068;2024-01-15T04:29:15;2.23;;;2.13;;
4821;SDS011;2425;47.794;13.068;2024-01-15T04:31:42;1.90;;;1.80;;
4821;SDS011;2425;47.794;13.068;2024-01-15T04:34:09;2.07;;;1.97;;
4821;SDS011;2425;47.794;13.068;2024-01-15T04:36:38;2.40;;;2.30;;
4821;SDS011;2425;47.794;13.068;2024-01-15T04:39:05;2.20;;;2.10;;
4821;SDS011;2425;47.794;13.068;2024-01-15T04:41:33;4.83;;;2.40;;
4821;SDS011;2425;47.794;13.068;2024-01-15T04:44:00;2.23;;;2.10;;
4821;SDS011;2425;47.794;13.068;2024-01-15T04:46:27;1.80;;;1.70;;
4821;SDS011;2425;47.794;13.068;2024-01-15T04:48:54;2.17;;;2.00;;
4821;SDS011;2425;47.794;13.068;2024-01-15T04:51:20;2.13;;;2.03;;
4821;SDS011;2425;47.794;13.068;2024-01-15T04:53:47;2.50;;;2.37;;
4821;SDS011;2425;47.794;13.068;2024-01-15T04:56:14;6.93;;;2.10;;
4821;SDS011;2425;47.794;13.068;2024-01-15T04:58:42;2.20;;;2.00;;
4821;SDS011;2425;47.794;13.068;2024-01-15T05:01:09;1.97;;;1.87;;
4821;SDS011;2425;47.794;13.068;2024-01-15T05:03:36;2.17;;;2.07;;
4821;SDS011;2425;47.794;13.068;2024-01-15T05:06:03;2.20;;;2.00;;
4821;SDS011;2425;47.794;13.068;2024-01-15T05:08:30;1.67;;;1.63;;
4821;SDS011;2425;47.794;13.068;2024-01-15T05:10:57;2.00;;;1.80;;
4821;SDS011;2425;47.794;13.068;2024-01-15T05:13:24;2.60;;;2.00;;
4821;SDS011;2425;47.794;13.068;2024-01-15T05:15:52;1.70;;;1.60;;
4821;SDS011;2425;47.794;13.068;2024-01-15T05:18:19;3.20;;;1.90;;
4821;SDS011;2425;47.794;13.068;2024-01-15T05:20:45;2.30;;;2.10;;
4821;SDS011;2425;47.794;13.068;2024-01-15T05:23:12;2.73;;;2.40;;
4821;SDS011;2425;47.794;13.068;2024-01-15T05:25:39;2.03;;;1.97;;
4821;SDS011;2425;47.794;13.068;2024-01-15T05:28:06;5.13;;;2.07;;
4821;SDS011;2425;47.794;13.068;2024-01-15T05:30:33;1.90;;;1.80;;
4821;SDS011;2425;47.794;13.068;2024-01-15T05:33:01;2.30;;;2.13;;
4821;SDS011;2425;47.794;13.068;2024-01-15T05:35:32;1.50;;;1.50;;
4821;SDS011;2425;47.794;13.068;2024-01-15T05:38:12;1.83;;;1.73;;
4821;SDS011;2425;47.794;13.068;2024-01-15T05:40:48;1.60;;;1.60;;
4821;SDS011;2425;47.794;13.068;2024-01-15T05:43:15;1.90;;;1.80;;
4821;SDS011;2425;47.794;13.068;2024-01-15T05:45:42;2.13;;;2.03;;
4821;SDS011;2425;47.794;13.068;2024-01-15T05:48:11;1.77;;;1.70;;
4821;SDS011;2425;47.794;13.068;2024-01-15T05:50:38;1.93;;;1.90;;
4821;SDS011;2425;47.794;13.068;2024-01-15T05:53:05;1.90;;;1.80;;
4821;SDS011;2425;47.794;13.068;2024-01-15T05:55:31;1.63;;;1.63;;
4821;SDS011;2425;47.794;13.068;2024-01-15T05:57:58;2.50;;;1.90;;
4821;SDS011;2425;47.794;13.068;2024-01-15T06:00:25;1.63;;;1.53;;
4821;SDS011;2425;47.794;13.068;2024-01-15T06:02:51;1.80;;;1.70;;
4821;SDS011;2425;47.794;13.068;2024-01-15T06:05:20;2.87;;;2.17;;
4821;SDS011;2425;47.794;13.068;2024-01-15T06:07:46;1.80;;;1.70;;
4821;SDS011;2425;47.794;13.068;2024-01-15T06:10:13;1.60;;;1.60;;
4821;SDS011;2425;47.794;13.068;2024-01-15T06:12:40;1.80;;;1.80;;
4821;SDS011;2425;47.794;13.068;2024-01-15T06:15:09;1.63;;;1.40;;
4821;SDS011;2425;47.794;13.068;2024-01-15T06:17:36;1.57;;;1.47;;
4821;SDS011;2425;47.794;13.068;2024-01-15T06:20:03;1.80;;;1.70;;
4821;SDS011;2425;47.794;13.068;2024-01-15T06:22:31;1.40;;;1.40;;
4821;SDS011;2425;47.794;13.068;2024-01-15T06:24:58;2.07;;;1.93;;
4821;SDS011;2425;47.794;13.068;2024-01-15T06:27:25;1.30;;;1.30;;
4821;SDS011;2425;47.794;13.068;2024-01-15T06:29:52;1.70;;;1.60;;
4821;SDS011;2425;47.794;13.068;2024-01-15T06:32:19;1.80;;;1.70;;
4821;SDS011;2425;47.794;13.068;2024-01-15T06:34:45;1.30;;;1.30;;
4821;SDS011;2425;47.794;13.068;2024-01-15T06:37:12;1.60;;;1.60;;
4821;SDS011;2425;47.794;13.068;2024-01-15T06:39:40;1.83;;;1.70;;
4821;SDS011;2425;47.794;13.068;2024-01-15T06:42:07;1.80;;;1.80;;
4821;SDS011;2425;47.794;13.068;2024-01-15T06:44:33;1.60;;;1.60;;
4821;SDS011;2425;47.794;13.068;2024-01-15T06:47:01;1.60;;;1.57;;
4821;SDS011;2425;47.794;13.068;2024-01-15T06:49:28;1.60;;;1.60;;
4821;SDS011;2425;47.794;13.068;2024-01-15T06:51:55;1.20;;;1.20;;
4821;SDS011;2425;47.794;13.068;2024-01-15T06:54:22;1.20;;;1.20;;
4821;SDS011;2425;47.794;13.068;2024-01-15T06:56:50;1.60;;;1.50;;
4821;SDS011;2425;47.794;13.068;2024-01-15T06:59:17;1.80;;;1.70;;
4821;SDS011;2425;47.794;13.068;2024-01-15T07:01:43;1.47;;;1.47;;
4821;SDS011;2425;47.794;13.068;2024-01-15T07:04:10;1.50;;;1.40;;
4821;SDS011;2425;47.794;13.068;2024-01-15T07:06:37;1.50;;;1.50;;
4821;SDS011;2425;47.794;13.068;2024-01-15T07:09:04;1.50;;;1.50;;
4821;SDS011;2425;47.794;13.068;2024-01-15T07:11:31;1.77;;;1.70;;
4821;SDS011;2425;47.794;13.068;2024-01-15T07:13:59;1.40;;;1.40;;
4821;SDS011;2425;47.794;13.068;2024-01-15T07:16:26;1.40;;;1.40;;
4821;SDS011;2425;47.794;13.068;2024-01-15T07:18:52;1.67;;;1.60;;
4821;SDS011;2425;47.794;13.068;2024-01-15T07:21:19;1.20;;;1.20;;
4821;SDS011;2425;47.794;13.068;2024-01-15T07:23:46;1.30;;;1.30;;
4821;SDS011;2425;47.794;13.068;2024-01-15T07:26:13;1.10;;;1.10;;
4821;SDS011;2425;47.794;13.068;2024-01-15T07:28:40;1.97;;;1.87;;
4821;SDS011;2425;47.794;13.068;2024-01-15T07:31:08;1.57;;;1.47;;
4821;SDS011;2425;47.794;13.068;2024-01-15T07:33:35;1.33;;;1.33;;
4821;SDS011;2425;47.794;13.068;2024-01-15T07:36:01;2.90;;;1.57;;
4821;SDS011;2425;47.794;13.068;2024-01-15T07:38:28;1.20;;;1.20;;
4821;SDS011;2425;47.794;13.068;2024-01-15T07:40:55;1.53;;;1.40;;
4821;SDS011;2425;47.794;13.068;2024-01-15T07:43:22;1.50;;;1.50;;
4821;SDS011;2425;47.794;13.068;2024-01-15T07:45:49;6.63;;;1.97;;
4821;SDS011;2425;47.794;13.068;2024-01-15T07:48:17;1.70;;;1.50;;
4821;SDS011;2425;47.794;13.068;2024-01-15T07:50:44;3.73;;;2.23;;
4821;SDS011;2425;47.794;13.068;2024-01-15T07:53:10;2.80;;;1.83;;
4821;SDS011;2425;47.794;13.068;2024-01-15T07:55:37;13.23;;;2.10;;
4821;SDS011;2425;47.794;13.068;2024-01-15T07:58:04;11.97;;;2.00;;
4821;SDS011;2425;47.794;13.068;2024-01-15T08:00:30;7.07;;;1.80;;
4821;SDS011;2425;47.794;13.068;2024-01-15T08:02:57;8.60;;;2.07;;
4821;SDS011;2425;47.794;13.068;2024-01-15T08:05:25;5.47;;;1.87;;
4821;SDS011;2425;47.794;13.068;2024-01-15T08:07:53;5.80;;;1.73;;
4821;SDS011;2425;47.794;13.068;2024-01-15T08:10:19;6.27;;;1.80;;
4821;SDS011;2425;47.794;13.068;2024-01-15T08:12:46;1.90;;;1.80;;
4821;SDS011;2425;47.794;13.068;2024-01-15T08:15:13;10.07;;;1.80;;
4821;SDS011;2425;47.794;13.068;2024-01-15T08:17:40;8.67;;;7.07;;
4821;SDS011;2425;47.794;13.068;2024-01-15T08:20:07;7.93;;;2.70;;
4821;SDS011;2425;47.794;13.068;2024-01-15T08:22:38;3.60;;;3.30;;
4821;SDS011;2425;47.794;13.068;2024-01-15T08:25:05;7.80;;;3.77;;
4821;SDS011;2425;47.794;13.068;2024-01-15T08:27:32;5.10;;;3.40;;
4821;SDS011;2425;47.794;13.068;2024-01-15T08:29:58;7.03;;;3.37;;
4821;SDS011;2425;47.794;13.068;2024-01-15T08:32:25;7.40;;;3.43;;
4821;SDS011;2425;47.794;13.068;2024-01-15T08:34:52;4.43;;;3.30;;
4821;SDS011;2425;47.794;13.068;2024-01-15T08:37:19;6.37;;;3.50;;
4821;SDS011;2425;47.794;13.068;2024-01-15T08:39:47;7.70;;;4.90;;
4821;SDS011;2425;47.794;13.068;2024-01-15T08:42:14;9.93;;;3.03;;
4821;SDS011;2425;47.794;13.068;2024-01-15T08:44:40;4.13;;;2.50;;
4821;SDS011;2425;47.794;13.068;2024-01-15T08:47:08;6.03;;;2.20;;
4821;SDS011;2425;47.794;13.068;2024-01-15T08:49:35;8.13;;;2.37;;
4821;SDS011;2425;47.794;13.068;2024-01-15T08:52:02;9.10;;;2.27;;
4821;SDS011;2425;47.794;13.068;2024-01-15T08:54:29;4.00;;;2.70;;
4821;SDS011;2425;47.794;13.068;2024-01-15T08:56:57;7.63;;;6.70;;
4821;SDS011;2425;47.794;13.068;2024-01-15T08:59:24;10.30;;;8.70;;
4821;SDS011;2425;47.794;13.068;2024-01-15T09:01:52;10.30;;;5.20;;
4821;SDS011;2425;47.794;13.068;2024-01-15T09:04:20;9.80;;;5.80;;
4821;SDS011;2425;47.794;13.068;2024-01-15T09:06:47;10.60;;;5.70;;
4821;SDS011;2425;47.794;13.068;2024-01-15T09:09:13;14.33;;;5.77;;
4821;SDS011;2425;47.794;13.068;2024-01-15T09:11:41;9.83;;;5.20;;
4821;SDS011;2425;47.794;13.068;2024-01-15T09:14:09;8.33;;;5.00;;
4821;SDS011;2425;47.794;13.068;2024-01-15T09:16:36;15.13;;;5.30;;
4821;SDS011;2425;47.794;13.068;2024-01-15T09:19:03;25.50;;;5.00;;
4821;SDS011;2425;47.794;13.068;2024-01-15T09:21:30;9.17;;;3.70;;
4821;SDS011;2425;47.794;13.068;2024-01-15T09:23:56;8.40;;;3.87;;
4821;SDS011;2425;47.794;13.068;2024-01-15T09:26:23;15.63;;;4.00;;
4821;SDS011;2425;47.794;13.068;2024-01-15T09:28:50;14.27;;;4.77;;
4821;SDS011;2425;47.794;13.068;2024-01-15T09:31:19;9.40;;;4.47;;
4821;SDS011;2425;47.794;13.068;2024-01-15T09:33:46;10.87;;;4.87;;
4821;SDS011;2425;47.794;13.068;2024-01-15T09:36:13;5.67;;;4.00;;
4821;SDS011;2425;47.794;13.068;2024-01-15T09:38:40;6.47;;;4.63;;
4821;SDS011;2425;47.794;13.068;2024-01-15T09:41:07;7.93;;;4.30;;
4821;SDS011;2425;47.794;13.068;2024-01-15T09:43:34;16.43;;;4.63;;
4821;SDS011;2425;47.794;13.068;2024-01-15T09:46:02;17.93;;;4.60;;
4821;SDS011;2425;47.794;13.068;2024-01-15T09:48:31;7.47;;;4.30;;
4821;SDS011;2425;47.794;13.068;2024-01-15T09:50:59;14.80;;;4.80;;
4821;SDS011;2425;47.794;13.068;2024-01-15T09:53:27;5.20;;;3.80;;
4821;SDS011;2425;47.794;13.068;2024-01-15T09:55:54;19.37;;;5.10;;
4821;SDS011;2425;47.794;13.068;2024-01-15T09:58:21;28.03;;;4.70;;
4821;SDS011;2425;47.794;13.068;2024-01-15T10:00:49;6.07;;;4.00;;
4821;SDS011;2425;47.794;13.068;2024-01-15T10:03:17;17.03;;;4.47;;
4821;SDS011;2425;47.794;13.068;2024-01-15T10:05:45;9.70;;;4.23;;
4821;SDS011;2425;47.794;13.068;2024-01-15T10:08:12;15.93;;;4.20;;
4821;SDS011;2425;47.794;13.068;2024-01-15T10:10:39;11.37;;;4.30;;
4821;SDS011;2425;47.794;13.068;2024-01-15T10:13:05;26.83;;;4.50;;
4821;SDS011;2425;47.794;13.068;2024-01-15T10:15:40;21.73;;;4.30;;
4821;SDS011;2425;47.794;13.068;2024-01-15T10:18:15;13.43;;;4.00;;
4821;SDS011;2425;47.794;13.068;2024-01-15T10:20:42;16.30;;;4.23;;
4821;SDS011;2425;47.794;13.068;2024-01-15T10:23:11;12.40;;;4.07;;
4821;SDS011;2425;47.794;13.068;2024-01-15T10:25:38;4.67;;;4.17;;
4821;SDS011;2425;47.794;13.068;2024-01-15T10:28:06;14.87;;;7.17;;
4821;SDS011;2425;47.794;13.068;2024-01-15T10:30:34;5.23;;;4.47;;
4821;SDS011;2425;47.794;13.068;2024-01-15T10:33:01;7.70;;;4.20;;
4821;SDS011;2425;47.794;13.068;2024-01-15T10:35:30;10.70;;;3.90;;
4821;SDS011;2425;47.794;13.068;2024-01-15T10:37:59;16.50;;;4.50;;
4821;SDS011;2425;47.794;13.068;2024-01-15T10:40:27;13.93;;;4.30;;
4821;SDS011;2425;47.794;13.068;2024-01-15T10:42:54;17.27;;;4.20;;
4821;SDS011;2425;47.794;13.068;2024-01-15T10:45:22;11.97;;;5.17;;
4821;SDS011;2425;47.794;13.068;2024-01-15T10:47:50;13.37;;;4.47;;
4821;SDS011;2425;47.794;13.068;2024-01-15T10:50:17;14.63;;;3.80;;
4821;SDS011;2425;47.794;13.068;2024-01-15T10:52:44;16.90;;;4.63;;
4821;SDS011;2425;47.794;13.068;2024-01-15T10:55:13;8.50;;;3.33;;
4821;SDS011;2425;47.794;13.068;2024-01-15T10:57:41;7.67;;;3.53;;
4821;SDS011;2425;47.794;13.068;2024-01-15T11:00:10;15.30;;;3.57;;
4821;SDS011;2425;47.794;13.068;2024-01-15T11:02:40;7.63;;;3.50;;
4821;SDS011;2425;47.794;13.068;2024-01-15T11:05:09;5.60;;;3.50;;
4821;SDS011;2425;47.794;13.068;2024-01-15T11:07:36;5.87;;;3.70;;
4821;SDS011;2425;47.794;13.068;2024-01-15T11:10:07;16.10;;;3.53;;
4821;SDS011;2425;47.794;13.068;2024-01-15T11:12:37;10.33;;;3.47;;
4821;SDS011;2425;47.794;13.068;2024-01-15T11:15:09;10.63;;;3.60;;
4821;SDS011;2425;47.794;13.068;2024-01-15T11:17:57;4.50;;;3.20;;
4821;SDS011;2425;47.794;13.068;2024-01-15T11:20:26;12.80;;;3.40;;
4821;SDS011;2425;47.794;13.068;2024-01-15T11:22:53;8.37;;;2.63;;
4821;SDS011;2425;47.794;13.068;2024-01-15T11:25:22;7.83;;;2.60;;
4821;SDS011;2425;47.794;13.068;2024-01-15T11:27:51;10.07;;;2.67;;
4821;SDS011;2425;47.794;13.068;2024-01-15T11:30:20;7.33;;;2.53;;
4821;SDS011;2425;47.794;13.068;2024-01-15T11:32:52;3.20;;;2.50;;
4821;SDS011;2425;47.794;13.068;2024-01-15T11:35:19;4.27;;;2.33;;
4821;SDS011;2425;47.794;13.068;2024-01-15T11:37:58;3.70;;;2.67;;
4821;SDS011;2425;47.794;13.068;2024-01-15T11:40:39;9.50;;;2.90;;
4821;SDS011;2425;47.794;13.068;2024-01-15T11:43:09;6.83;;;2.60;;
4821;SDS011;2425;47.794;13.068;2024-01-15T11:45:38;10.17;;;2.80;;
4821;SDS011;2425;47.794;13.068;2024-01-15T11:48:09;11.33;;;2.63;;
4821;SDS011;2425;47.794;13.068;2024-01-15T11:50:40;6.90;;;2.57;;
4821;SDS011;2425;47.794;13.068;2024-01-15T11:53:12;12.40;;;2.80;;
4821;SDS011;2425;47.794;13.068;2024-01-15T11:55:43;7.77;;;2.33;;
4821;SDS011;2425;47.794;13.068;2024-01-15T11:58:12;7.13;;;2.83;;
4821;SDS011;2425;47.794;13.068;2024-01-15T12:00:40;12.37;;;2.37;;
4821;SDS011;2425;47.794;13.068;2024-01-15T12:03:08;4.33;;;1.93;;
4821;SDS011;2425;47.794;13.068;2024-01-15T12:05:36;9.13;;;2.57;;
4821;SDS011;2425;47.794;13.068;2024-01-15T12:08:03;11.20;;;3.50;;
4821;SDS011;2425;47.794;13.068;2024-01-15T12:10:36;3.73;;;1.77;;
4821;SDS011;2425;47.794;13.068;2024-01-15T12:13:11;9.50;;;2.07;;
4821;SDS011;2425;47.794;13.068;2024-01-15T12:15:54;5.80;;;2.30;;
4821;SDS011;2425;47.794;13.068;2024-01-15T12:18:33;6.37;;;1.80;;
4821;SDS011;2425;47.794;13.068;2024-01-15T12:21:12;2.30;;;2.00;;
4821;SDS011;2425;47.794;13.068;2024-01-15T12:23:53;14.63;;;2.60;;
4821;SDS011;2425;47.794;13.068;2024-01-15T12:26:28;2.10;;;1.90;;
4821;SDS011;2425;47.794;13.068;2024-01-15T12:29:01;4.07;;;2.20;;
4821;SDS011;2425;47.794;13.068;2024-01-15T12:31:29;2.27;;;2.13;;
4821;SDS011;2425;47.794;13.068;2024-01-15T12:33:56;6.80;;;1.70;;
4821;SDS011;2425;47.794;13.068;2024-01-15T12:36:23;5.50;;;2.83;;
4821;SDS011;2425;47.794;13.068;2024-01-15T12:38:50;6.80;;;1.73;;
4821;SDS011;2425;47.794;13.068;2024-01-15T12:41:16;3.17;;;1.60;;
4821;SDS011;2425;47.794;13.068;2024-01-15T12:43:43;2.60;;;1.80;;
4821;SDS011;2425;47.794;13.068;2024-01-15T12:46:11;4.80;;;2.50;;
4821;SDS011;2425;47.794;13.068;2024-01-15T12:48:38;12.57;;;2.40;;
4821;SDS011;2425;47.794;13.068;2024-01-15T12:51:05;2.90;;;1.97;;
4821;SDS011;2425;47.794;13.068;2024-01-15T12:53:36;5.70;;;1.70;;
4821;SDS011;2425;47.794;13.068;2024-01-15T12:56:12;6.30;;;1.60;;
4821;SDS011;2425;47.794;13.068;2024-01-15T12:58:40;7.33;;;2.17;;
4821;SDS011;2425;47.794;13.068;2024-01-15T13:01:07;6.70;;;2.10;;
4821;SDS011;2425;47.794;13.068;2024-01-15T13:03:35;10.83;;;1.87;;
4821;SDS011;2425;47.794;13.068;2024-01-15T13:06:02;16.73;;;2.33;;
4821;SDS011;2425;47.794;13.068;2024-01-15T13:08:29;2.97;;;1.80;;
4821;SDS011;2425;47.794;13.068;2024-01-15T13:10:56;4.93;;;1.70;;
4821;SDS011;2425;47.794;13.068;2024-01-15T13:13:26;6.83;;;1.53;;
4821;SDS011;2425;47.794;13.068;2024-01-15T13:16:03;2.77;;;1.70;;
4821;SDS011;2425;47.794;13.068;2024-01-15T13:18:30;4.77;;;1.90;;
4821;SDS011;2425;47.794;13.068;2024-01-15T13:20:58;1.90;;;1.47;;
4821;SDS011;2425;47.794;13.068;2024-01-15T13:23:25;5.60;;;1.30;;
4821;SDS011;2425;47.794;13.068;2024-01-15T13:25:52;1.70;;;1.60;;
4821;SDS011;2425;47.794;13.068;2024-01-15T13:28:19;4.67;;;2.00;;
4821;SDS011;2425;47.794;13.068;2024-01-15T13:30:46;10.30;;;1.70;;
4821;SDS011;2425;47.794;13.068;2024-01-15T13:33:13;3.23;;;1.40;;
4821;SDS011;2425;47.794;13.068;2024-01-15T13:35:40;4.57;;;1.70;;
4821;SDS011;2425;47.794;13.068;2024-01-15T13:38:08;2.30;;;1.53;;
4821;SDS011;2425;47.794;13.068;2024-01-15T13:40:36;5.40;;;1.37;;
4821;SDS011;2425;47.794;13.068;2024-01-15T13:43:03;5.03;;;1.63;;
4821;SDS011;2425;47.794;13.068;2024-01-15T13:45:33;13.37;;;1.70;;
4821;SDS011;2425;47.794;13.068;2024-01-15T13:48:02;7.13;;;1.47;;
4821;SDS011;2425;47.794;13.068;2024-01-15T13:50:30;15.93;;;9.80;;
4821;SDS011;2425;47.794;13.068;2024-01-15T13:52:57;6.23;;;4.60;;
4821;SDS011;2425;47.794;13.068;2024-01-15T13:55:25;9.57;;;4.57;;
4821;SDS011;2425;47.794;13.068;2024-01-15T13:57:52;5.97;;;2.60;;
4821;SDS011;2425;47.794;13.068;2024-01-15T14:00:19;6.70;;;3.30;;
4821;SDS011;2425;47.794;13.068;2024-01-15T14:02:45;10.80;;;3.10;;
4821;SDS011;2425;47.794;13.068;2024-01-15T14:05:12;13.73;;;2.97;;
4821;SDS011;2425;47.794;13.068;2024-01-15T14:07:39;7.30;;;3.00;;
4821;SDS011;2425;47.794;13.068;2024-01-15T14:10:06;10.67;;;2.63;;
4821;SDS011;2425;47.794;13.068;2024-01-15T14:12:35;7.20;;;2.53;;
4821;SDS011;2425;47.794;13.068;2024-01-15T14:15:02;6.33;;;2.60;;
4821;SDS011;2425;47.794;13.068;2024-01-15T14:17:30;10.07;;;2.20;;
4821;SDS011;2425;47.794;13.068;2024-01-15T14:19:57;10.70;;;2.20;;
4821;SDS011;2425;47.794;13.068;2024-01-15T14:22:24;10.60;;;2.60;;
4821;SDS011;2425;47.794;13.068;2024-01-15T14:24:51;8.23;;;2.30;;
4821;SDS011;2425;47.794;13.068;2024-01-15T14:27:22;13.53;;;3.40;;
4821;SDS011;2425;47.794;13.068;2024-01-15T14:30:11;3.30;;;1.80;;
4821;SDS011;2425;47.794;13.068;2024-01-15T14:32:42;5.93;;;2.37;;
4821;SDS011;2425;47.794;13.068;2024-01-15T14:35:09;4.80;;;2.60;;
4821;SDS011;2425;47.794;13.068;2024-01-15T14:37:36;4.30;;;2.30;;
4821;SDS011;2425;47.794;13.068;2024-01-15T14:40:08;4.10;;;2.00;;
4821;SDS011;2425;47.794;13.068;2024-01-15T14:42:50;4.63;;;2.17;;
4821;SDS011;2425;47.794;13.068;2024-01-15T14:45:18;5.10;;;2.97;;
4821;SDS011;2425;47.794;13.068;2024-01-15T14:47:45;4.80;;;2.40;;
4821;SDS011;2425;47.794;13.068;2024-01-15T14:50:15;3.47;;;1.93;;
4821;SDS011;2425;47.794;13.068;2024-01-15T14:52:42;3.27;;;1.90;;
4821;SDS011;2425;47.794;13.068;2024-01-15T14:55:10;2.73;;;2.37;;
4821;SDS011;2425;47.794;13.068;2024-01-15T14:57:36;6.57;;;1.97;;
4821;SDS011;2425;47.794;13.068;2024-01-15T15:00:03;4.73;;;2.53;;
4821;SDS011;2425;47.794;13.068;2024-01-15T15:02:34;5.00;;;2.27;;
4821;SDS011;2425;47.794;13.068;2024-01-15T15:05:02;2.40;;;2.07;;